aviador You're here:

KMSN Decoded Metar

MADISON in WI, USA
Report Time2017-07-22 23:53:00
UTC Time2017-07-23 00:54:35
Flight Rules vfr VFR
WindCalm
Visibility9999 m
Phenomena:N/A
Clouds:Few 035 Hf
Scattered 250 Hf
Expected CloudBase > 2,400 ft AGL from Temp-Dew spread
CeilingNone
Temp27°C (ISA +14)
Dew Point21°C (70% RH)
Heat Index28.9°C
QNH1009 hPa
Density Alt2,900 ft
Elevation856 ft
Report Wrong Elevation
Raw Report
KMSN 222353Z 00000KT 10SM FEW035 SCT250 27/21 A2980 RMK AO2 SLP087
T02720211 10283 20250 55005 $=

Extra information for KMSN:More info

Metar Taf Metar & Taf Last 4 Metars F.Rules Stats Wind Profile Meteogram Temp Stats Airport Information Weather charts Add Link Nearby VenuesMetar ALERT Operation Metar Decoded Social comments

AIRNAV info for KMSN